createdAt,value
2019-06-26T18:05:52.773Z,23.49
2019-06-26T18:08:24.262Z,24.02
2019-06-26T18:10:53.943Z,21.24
2019-06-26T18:13:23.246Z,20.99
2019-06-26T18:15:59.437Z,20.65
2019-06-26T18:18:28.624Z,20.65
2019-06-26T18:20:57.876Z,20.74
2019-06-26T18:23:37.251Z,20.70
2019-06-26T18:26:11.798Z,20.59
2019-06-26T18:28:29.674Z,20.64
2019-06-26T18:30:58.855Z,20.62
2019-06-26T18:33:27.911Z,20.59
2019-06-26T18:35:57.524Z,20.44
2019-06-26T18:38:26.747Z,20.35
2019-06-26T18:40:55.960Z,20.40
2019-06-26T18:43:25.000Z,20.30
2019-06-26T18:45:54.272Z,20.44
2019-06-26T18:48:25.030Z,20.37
2019-06-26T18:50:54.447Z,20.26
2019-06-26T18:53:23.665Z,20.03
2019-06-26T18:55:52.845Z,20.07
2019-06-26T18:58:21.908Z,20.17
2019-06-26T19:00:51.122Z,19.98
2019-06-26T19:03:20.227Z,19.99
2019-06-26T19:05:49.448Z,20.01
2019-06-26T19:08:18.665Z,20.01
2019-06-26T19:10:47.907Z,19.82
2019-06-26T19:13:20.125Z,19.78
2019-06-26T19:15:47.996Z,19.91
2019-06-26T19:18:17.244Z,19.85
2019-06-26T19:20:46.332Z,19.85
2019-06-26T19:23:15.540Z,19.59
2019-06-26T19:25:44.753Z,19.78
2019-06-26T19:28:13.932Z,19.43
2019-06-26T19:30:43.072Z,19.56
2019-06-26T19:33:12.179Z,19.41
2019-06-26T19:35:41.507Z,19.19
2019-06-26T19:38:10.588Z,19.39
2019-06-26T19:40:39.787Z,19.41
2019-06-26T19:43:11.173Z,19.26
2019-06-26T19:45:39.844Z,19.11
2019-06-26T19:48:09.042Z,19.00
2019-06-26T19:50:38.264Z,19.02
2019-06-26T19:53:07.469Z,19.17
2019-06-26T19:55:36.746Z,18.93
2019-06-26T19:58:05.930Z,18.98
2019-06-26T20:00:35.145Z,18.80
2019-06-26T20:03:04.333Z,18.71
2019-06-26T20:05:34.215Z,18.81
2019-06-26T20:08:03.368Z,18.56
2019-06-26T20:10:32.555Z,18.61
2019-06-26T20:13:02.068Z,18.55
2019-06-26T20:15:31.283Z,18.58
2019-06-26T20:18:03.973Z,18.46
2019-06-26T20:20:31.536Z,18.46
2019-06-26T20:23:00.625Z,18.27
2019-06-26T20:25:29.735Z,18.17
2019-06-26T20:27:58.860Z,17.95
2019-06-26T20:30:30.966Z,18.18
2019-06-26T20:33:00.417Z,18.00
2019-06-26T20:35:31.817Z,18.05
2019-06-26T20:38:00.892Z,17.92
2019-06-26T20:40:30.108Z,17.76
2019-06-26T20:42:59.296Z,17.80
2019-06-26T20:45:28.514Z,17.82
2019-06-26T20:47:57.559Z,17.67
2019-06-26T20:50:26.753Z,17.71
2019-06-26T20:52:55.933Z,17.71
2019-06-26T20:55:25.170Z,17.48
2019-06-26T20:57:54.385Z,17.58
2019-06-26T21:00:23.596Z,17.42
2019-06-26T21:02:54.325Z,17.58
2019-06-26T21:05:23.696Z,17.58
2019-06-26T21:07:52.883Z,17.43
2019-06-26T21:10:22.843Z,17.15
2019-06-26T21:12:52.291Z,17.15
2019-06-26T21:15:21.524Z,17.29
2019-06-26T21:17:50.634Z,17.15
2019-06-26T21:20:19.827Z,16.95
2019-06-26T21:22:48.956Z,16.95
2019-06-26T21:25:19.777Z,16.99
2019-06-26T21:27:49.007Z,16.95
2019-06-26T21:30:18.311Z,16.95
2019-06-26T21:32:47.439Z,16.91
2019-06-26T21:35:16.634Z,16.70
2019-06-26T21:37:45.827Z,16.86
2019-06-26T21:40:19.949Z,16.79
2019-06-26T21:42:52.097Z,16.63
2019-06-26T21:45:23.943Z,16.67
2019-06-26T21:47:55.858Z,16.64
2019-06-26T21:50:28.572Z,16.43
2019-06-26T21:52:56.390Z,16.59
2019-06-26T21:55:34.381Z,16.48
2019-06-26T21:57:56.683Z,16.50
2019-06-26T22:00:27.788Z,16.57
2019-06-26T22:02:57.933Z,16.42
2019-06-26T22:05:27.255Z,16.42
2019-06-26T22:07:56.452Z,16.18
2019-06-26T22:10:25.634Z,16.17
2019-06-26T22:12:54.926Z,16.23
2019-06-26T22:15:24.305Z,16.30
2019-06-26T22:17:53.425Z,16.23
2019-06-26T22:20:22.724Z,16.10
2019-06-26T22:22:51.892Z,16.32
2019-06-26T22:25:21.092Z,16.33
2019-06-26T22:27:51.078Z,16.30
2019-06-26T22:30:20.468Z,16.40
2019-06-26T22:32:49.590Z,16.39
2019-06-26T22:35:18.792Z,16.48
2019-06-26T22:37:49.055Z,16.41
2019-06-26T22:40:18.759Z,16.41
2019-06-26T22:42:47.923Z,16.58
2019-06-26T22:45:17.258Z,16.58
2019-06-26T22:47:46.674Z,16.42
2019-06-26T22:50:16.699Z,16.40
2019-06-26T22:52:45.884Z,16.64
2019-06-26T22:55:15.183Z,16.61
2019-06-26T22:57:44.361Z,16.61
2019-06-26T23:00:15.493Z,16.52
2019-06-26T23:02:44.911Z,16.65
2019-06-26T23:05:14.362Z,16.56
2019-06-26T23:07:43.481Z,16.54
2019-06-26T23:10:13.092Z,16.61
2019-06-26T23:12:42.218Z,16.47
2019-06-26T23:15:12.944Z,16.45
2019-06-26T23:17:42.126Z,16.50
2019-06-26T23:20:11.626Z,16.42
2019-06-26T23:22:40.822Z,16.41
2019-06-26T23:25:09.957Z,16.52
2019-06-26T23:27:39.140Z,16.39
2019-06-26T23:30:13.265Z,16.40
2019-06-26T23:32:42.440Z,16.40
2019-06-26T23:35:11.643Z,16.07
2019-06-26T23:37:40.825Z,16.21
2019-06-26T23:40:11.029Z,16.17
2019-06-26T23:42:40.216Z,16.17
2019-06-26T23:45:10.731Z,16.18
2019-06-26T23:47:39.991Z,16.14
2019-06-26T23:50:09.916Z,16.14
2019-06-26T23:52:39.114Z,16.16
2019-06-26T23:55:08.528Z,16.16
2019-06-26T23:57:44.380Z,16.05
